AFL1483 UNKL-UUEE
Flight info
| Callsign | AFL1483 |
|---|---|
| Flight time | 4h 49m |
| Altitude | 34000 |
| Route | N0450F340 BASEL B938 SURIP T631 NOVRA B805 LAMEG N992 ADIMA N869 LITUN T580 POBEM N869 REKPA N181 ROMTA |
| Aircraft | A320/M-VGDW/C |
Departure
| Time | 2026-05-06 09:13 |
|---|---|
| Airport | Krasnoyarsk International Airport (UNKL) |
Arrival
| Time | 2026-05-06 14:02 |
|---|---|
| Airport | Sheremetyevo International Airport (UUEE) |
| Time | Latitude | Longitude | Altitude | Speed | Heading |
|---|---|---|---|---|---|
| 2026-05-06 08:34 | 56.17946 | 92.48542 | 957 ft | 0 kts | 23° |
| 2026-05-06 09:00 | 56.17940 | 92.48538 | 957 ft | 2 kts | 23° |
| 2026-05-06 09:01 | 56.17922 | 92.48524 | 953 ft | 3 kts | 23° |
| 2026-05-06 09:01 | 56.17903 | 92.48510 | 954 ft | 3 kts | 19° |
| 2026-05-06 09:01 | 56.17884 | 92.48501 | 956 ft | 3 kts | 357° |
| 2026-05-06 09:01 | 56.17867 | 92.48508 | 952 ft | 3 kts | 308° |
| 2026-05-06 09:02 | 56.17862 | 92.48525 | 953 ft | 2 kts | 289° |
| 2026-05-06 09:02 | 56.17856 | 92.48552 | 953 ft | 1 kts | 289° |
| 2026-05-06 09:02 | 56.17856 | 92.48556 | 953 ft | 0 kts | 289° |
| 2026-05-06 09:05 | 56.17856 | 92.48552 | 953 ft | 0 kts | 289° |
| 2026-05-06 09:05 | 56.17864 | 92.48505 | 952 ft | 5 kts | 277° |
| 2026-05-06 09:05 | 56.17840 | 92.48461 | 953 ft | 9 kts | 205° |
| 2026-05-06 09:06 | 56.17757 | 92.48410 | 954 ft | 13 kts | 176° |
| 2026-05-06 09:06 | 56.17709 | 92.48532 | 956 ft | 11 kts | 114° |
| 2026-05-06 09:06 | 56.17680 | 92.48649 | 956 ft | 9 kts | 114° |
| 2026-05-06 09:06 | 56.17651 | 92.48768 | 955 ft | 15 kts | 113° |
| 2026-05-06 09:07 | 56.17610 | 92.48942 | 955 ft | 15 kts | 112° |
| 2026-05-06 09:07 | 56.17572 | 92.49107 | 953 ft | 14 kts | 112° |
| 2026-05-06 09:07 | 56.17539 | 92.49250 | 956 ft | 12 kts | 113° |
| 2026-05-06 09:07 | 56.17496 | 92.49433 | 956 ft | 18 kts | 113° |
| 2026-05-06 09:08 | 56.17447 | 92.49639 | 956 ft | 18 kts | 113° |
| 2026-05-06 09:08 | 56.17397 | 92.49848 | 955 ft | 18 kts | 112° |
| 2026-05-06 09:08 | 56.17347 | 92.50062 | 956 ft | 19 kts | 113° |
| 2026-05-06 09:08 | 56.17295 | 92.50280 | 954 ft | 19 kts | 113° |
| 2026-05-06 09:09 | 56.17242 | 92.50504 | 953 ft | 20 kts | 113° |
| 2026-05-06 09:09 | 56.17187 | 92.50732 | 956 ft | 20 kts | 113° |
| 2026-05-06 09:09 | 56.17130 | 92.50966 | 954 ft | 21 kts | 114° |
| 2026-05-06 09:09 | 56.17071 | 92.51214 | 955 ft | 22 kts | 113° |
| 2026-05-06 09:10 | 56.17011 | 92.51467 | 953 ft | 22 kts | 113° |
| 2026-05-06 09:10 | 56.16950 | 92.51724 | 955 ft | 23 kts | 113° |
| 2026-05-06 09:10 | 56.16905 | 92.51913 | 955 ft | 10 kts | 112° |
| 2026-05-06 09:10 | 56.16873 | 92.52002 | 954 ft | 7 kts | 145° |
| 2026-05-06 09:11 | 56.16831 | 92.52015 | 955 ft | 5 kts | 175° |
| 2026-05-06 09:11 | 56.16765 | 92.52026 | 954 ft | 13 kts | 175° |
| 2026-05-06 09:11 | 56.16673 | 92.52020 | 953 ft | 13 kts | 224° |
| 2026-05-06 09:11 | 56.16673 | 92.51942 | 955 ft | 0 kts | 293° |
| 2026-05-06 09:12 | 56.16710 | 92.51787 | 954 ft | 46 kts | 293° |
| 2026-05-06 09:12 | 56.16928 | 92.50871 | 954 ft | 111 kts | 294° |
| 2026-05-06 09:12 | 56.17303 | 92.49301 | 952 ft | 161 kts | 292° |
| 2026-05-06 09:13 | 56.17790 | 92.47324 | 1300 ft | 175 kts | 295° |
| 2026-05-06 09:13 | 56.18324 | 92.45326 | 2032 ft | 178 kts | 290° |
| 2026-05-06 09:13 | 56.18801 | 92.43300 | 2771 ft | 175 kts | 288° |
| 2026-05-06 09:13 | 56.19263 | 92.41282 | 3327 ft | 174 kts | 287° |
| 2026-05-06 09:14 | 56.19724 | 92.39277 | 3856 ft | 173 kts | 289° |
| 2026-05-06 09:14 | 56.20039 | 92.37916 | 4169 ft | 176 kts | 289° |
| 2026-05-06 09:15 | 56.20150 | 92.37428 | 4223 ft | 181 kts | 289° |
| 2026-05-06 09:15 | 56.20658 | 92.35213 | 4374 ft | 203 kts | 290° |
| 2026-05-06 09:15 | 56.21231 | 92.32733 | 4556 ft | 228 kts | 291° |
| 2026-05-06 09:16 | 56.22030 | 92.30114 | 4847 ft | 252 kts | 312° |
| 2026-05-06 09:16 | 56.23452 | 92.28162 | 5438 ft | 262 kts | 327° |
| 2026-05-06 09:16 | 56.25060 | 92.26549 | 6153 ft | 266 kts | 322° |
| 2026-05-06 09:16 | 56.26397 | 92.24281 | 6882 ft | 265 kts | 311° |
| 2026-05-06 09:17 | 56.27680 | 92.21885 | 7593 ft | 267 kts | 312° |
| 2026-05-06 09:17 | 56.28982 | 92.19470 | 8307 ft | 270 kts | 312° |
| 2026-05-06 09:17 | 56.30294 | 92.17045 | 9015 ft | 272 kts | 312° |
| 2026-05-06 09:17 | 56.31623 | 92.14593 | 9722 ft | 275 kts | 312° |
| 2026-05-06 09:18 | 56.32966 | 92.12116 | 10271 ft | 283 kts | 312° |
| 2026-05-06 09:18 | 56.34396 | 92.09478 | 10403 ft | 305 kts | 312° |
| 2026-05-06 09:18 | 56.35927 | 92.06656 | 10585 ft | 324 kts | 312° |
| 2026-05-06 09:18 | 56.37521 | 92.03714 | 11061 ft | 331 kts | 312° |
| 2026-05-06 09:19 | 56.39139 | 92.00730 | 11688 ft | 334 kts | 312° |
| 2026-05-06 09:19 | 56.40763 | 91.97729 | 12345 ft | 336 kts | 312° |
| 2026-05-06 09:19 | 56.42405 | 91.94686 | 12984 ft | 338 kts | 312° |
| 2026-05-06 09:19 | 56.44042 | 91.91639 | 13610 ft | 341 kts | 312° |
| 2026-05-06 09:20 | 56.45698 | 91.88544 | 14174 ft | 343 kts | 311° |
| 2026-05-06 09:20 | 56.47361 | 91.85430 | 14714 ft | 345 kts | 311° |
| 2026-05-06 09:20 | 56.49037 | 91.82299 | 15257 ft | 347 kts | 311° |
| 2026-05-06 09:20 | 56.50726 | 91.79151 | 15805 ft | 350 kts | 311° |
| 2026-05-06 09:21 | 56.52430 | 91.75973 | 16339 ft | 352 kts | 311° |
| 2026-05-06 09:21 | 56.54136 | 91.72785 | 16881 ft | 354 kts | 311° |
| 2026-05-06 09:21 | 56.55854 | 91.69564 | 17416 ft | 356 kts | 311° |
| 2026-05-06 09:21 | 56.57572 | 91.66312 | 17949 ft | 358 kts | 309° |
| 2026-05-06 09:22 | 56.59104 | 91.62769 | 18450 ft | 358 kts | 304° |
| 2026-05-06 09:22 | 56.60588 | 91.59126 | 18934 ft | 359 kts | 304° |
| 2026-05-06 09:22 | 56.62058 | 91.55455 | 19438 ft | 360 kts | 303° |
| 2026-05-06 09:22 | 56.63523 | 91.51765 | 19936 ft | 361 kts | 303° |
| 2026-05-06 09:23 | 56.64992 | 91.48057 | 20449 ft | 362 kts | 303° |
| 2026-05-06 09:23 | 56.66466 | 91.44347 | 20943 ft | 362 kts | 303° |
| 2026-05-06 09:23 | 56.67945 | 91.40630 | 21428 ft | 363 kts | 303° |
| 2026-05-06 09:23 | 56.69427 | 91.36895 | 21899 ft | 364 kts | 303° |
| 2026-05-06 09:24 | 56.70907 | 91.33153 | 22351 ft | 365 kts | 303° |
| 2026-05-06 09:24 | 56.72392 | 91.29395 | 22800 ft | 366 kts | 303° |
| 2026-05-06 09:24 | 56.73881 | 91.25626 | 23248 ft | 367 kts | 303° |
| 2026-05-06 09:24 | 56.75377 | 91.21842 | 23648 ft | 368 kts | 303° |
| 2026-05-06 09:25 | 56.76860 | 91.18086 | 23984 ft | 369 kts | 302° |
| 2026-05-06 09:25 | 56.78362 | 91.14275 | 24311 ft | 371 kts | 302° |
| 2026-05-06 09:25 | 56.79866 | 91.10451 | 24625 ft | 372 kts | 302° |
| 2026-05-06 09:25 | 56.81375 | 91.06603 | 24935 ft | 374 kts | 302° |
| 2026-05-06 09:26 | 56.82906 | 91.02686 | 25242 ft | 375 kts | 302° |
| 2026-05-06 09:26 | 56.84403 | 90.98854 | 25558 ft | 377 kts | 302° |
| 2026-05-06 09:26 | 56.85930 | 90.94949 | 25953 ft | 379 kts | 302° |
| 2026-05-06 09:26 | 56.87466 | 90.91025 | 26309 ft | 380 kts | 302° |
| 2026-05-06 09:27 | 56.89001 | 90.87090 | 26590 ft | 381 kts | 301° |
| 2026-05-06 09:27 | 56.90540 | 90.83125 | 26873 ft | 383 kts | 301° |
| 2026-05-06 09:27 | 56.92081 | 90.79150 | 27137 ft | 384 kts | 301° |
| 2026-05-06 09:27 | 56.93629 | 90.75151 | 27389 ft | 386 kts | 301° |
| 2026-05-06 09:28 | 56.95183 | 90.71132 | 27629 ft | 388 kts | 301° |
| 2026-05-06 09:28 | 56.96743 | 90.67086 | 27888 ft | 389 kts | 301° |
| 2026-05-06 09:28 | 56.97798 | 90.64342 | 28039 ft | 390 kts | 301° |
| 2026-05-06 09:28 | 56.99368 | 90.60265 | 28277 ft | 392 kts | 301° |
| 2026-05-06 09:29 | 57.01455 | 90.54845 | 28573 ft | 394 kts | 301° |
| 2026-05-06 09:29 | 57.02521 | 90.52070 | 28718 ft | 395 kts | 301° |
| 2026-05-06 09:29 | 57.04619 | 90.46601 | 28995 ft | 397 kts | 301° |
| 2026-05-06 09:29 | 57.05664 | 90.43768 | 29138 ft | 395 kts | 296° |
| 2026-05-06 09:30 | 57.06773 | 90.39180 | 29341 ft | 392 kts | 288° |
| 2026-05-06 09:30 | 57.07715 | 90.34540 | 29536 ft | 393 kts | 288° |
| 2026-05-06 09:30 | 57.08677 | 90.29758 | 29726 ft | 395 kts | 287° |
| 2026-05-06 09:30 | 57.09624 | 90.25019 | 29992 ft | 394 kts | 287° |
| 2026-05-06 09:31 | 57.10567 | 90.20299 | 30258 ft | 393 kts | 287° |
| 2026-05-06 09:31 | 57.11510 | 90.15574 | 30479 ft | 393 kts | 287° |
| 2026-05-06 09:31 | 57.12452 | 90.10858 | 30697 ft | 393 kts | 287° |
| 2026-05-06 09:31 | 57.13392 | 90.06142 | 30912 ft | 392 kts | 287° |
| 2026-05-06 09:32 | 57.14324 | 90.01423 | 31103 ft | 392 kts | 287° |
| 2026-05-06 09:32 | 57.15242 | 89.96758 | 31325 ft | 392 kts | 287° |
| 2026-05-06 09:32 | 57.16180 | 89.91976 | 31539 ft | 392 kts | 287° |
| 2026-05-06 09:32 | 57.17094 | 89.87320 | 31752 ft | 392 kts | 287° |
| 2026-05-06 09:33 | 57.18034 | 89.82539 | 31964 ft | 392 kts | 287° |
| 2026-05-06 09:33 | 57.18945 | 89.77883 | 32168 ft | 391 kts | 287° |
| 2026-05-06 09:33 | 57.19878 | 89.73100 | 32381 ft | 391 kts | 287° |
| 2026-05-06 09:33 | 57.20797 | 89.68384 | 32586 ft | 391 kts | 287° |
| 2026-05-06 09:34 | 57.21706 | 89.63720 | 32786 ft | 391 kts | 287° |
| 2026-05-06 09:34 | 57.22635 | 89.58933 | 32985 ft | 391 kts | 287° |
| 2026-05-06 09:34 | 57.23538 | 89.54264 | 33175 ft | 391 kts | 287° |
| 2026-05-06 09:34 | 57.24449 | 89.49534 | 33371 ft | 391 kts | 287° |
| 2026-05-06 09:35 | 57.25371 | 89.44734 | 33563 ft | 391 kts | 287° |
| 2026-05-06 09:35 | 57.26265 | 89.40064 | 33753 ft | 391 kts | 287° |
| 2026-05-06 09:35 | 57.27179 | 89.35280 | 33913 ft | 391 kts | 287° |
| 2026-05-06 09:36 | 57.28977 | 89.25826 | 33945 ft | 388 kts | 287° |
| 2026-05-06 09:36 | 57.30767 | 89.16405 | 33942 ft | 388 kts | 286° |
| 2026-05-06 09:37 | 57.32538 | 89.07023 | 33943 ft | 389 kts | 286° |
| 2026-05-06 09:37 | 57.34313 | 88.97561 | 33943 ft | 389 kts | 286° |
| 2026-05-06 09:38 | 57.36085 | 88.88089 | 33942 ft | 390 kts | 286° |
| 2026-05-06 09:38 | 57.37849 | 88.78597 | 33938 ft | 390 kts | 286° |
| 2026-05-06 09:39 | 57.39615 | 88.69072 | 33942 ft | 390 kts | 286° |
| 2026-05-06 09:39 | 57.41368 | 88.59546 | 33936 ft | 390 kts | 285° |
| 2026-05-06 09:40 | 57.43117 | 88.49999 | 33938 ft | 391 kts | 285° |
| 2026-05-06 09:40 | 57.45725 | 88.35655 | 33937 ft | 391 kts | 285° |
| 2026-05-06 09:41 | 57.47455 | 88.26065 | 33936 ft | 391 kts | 285° |
| 2026-05-06 09:41 | 57.49187 | 88.16468 | 33930 ft | 392 kts | 285° |
| 2026-05-06 09:42 | 57.50902 | 88.06876 | 33924 ft | 392 kts | 285° |
| 2026-05-06 09:42 | 57.52624 | 87.97229 | 33923 ft | 392 kts | 285° |
| 2026-05-06 09:43 | 57.54331 | 87.87589 | 33921 ft | 392 kts | 285° |
| 2026-05-06 09:43 | 57.56026 | 87.77935 | 33926 ft | 393 kts | 285° |
| 2026-05-06 09:44 | 57.57727 | 87.68259 | 33921 ft | 393 kts | 284° |
| 2026-05-06 09:44 | 57.59417 | 87.58576 | 33915 ft | 393 kts | 284° |
| 2026-05-06 09:45 | 57.61093 | 87.48866 | 33919 ft | 394 kts | 284° |
| 2026-05-06 09:45 | 57.62769 | 87.39150 | 33916 ft | 394 kts | 284° |
| 2026-05-06 09:46 | 57.64446 | 87.29388 | 33919 ft | 395 kts | 284° |
| 2026-05-06 09:46 | 57.66110 | 87.19624 | 33917 ft | 395 kts | 284° |
| 2026-05-06 09:47 | 57.67771 | 87.09830 | 33920 ft | 396 kts | 284° |
| 2026-05-06 09:47 | 57.69429 | 87.00020 | 33917 ft | 396 kts | 284° |
| 2026-05-06 09:48 | 57.71079 | 86.90204 | 33913 ft | 396 kts | 284° |
| 2026-05-06 09:48 | 57.72716 | 86.80358 | 33916 ft | 396 kts | 284° |
| 2026-05-06 09:49 | 57.74359 | 86.70500 | 33914 ft | 397 kts | 284° |
| 2026-05-06 09:49 | 57.75990 | 86.60635 | 33908 ft | 397 kts | 283° |
| 2026-05-06 09:50 | 57.77611 | 86.50743 | 33901 ft | 397 kts | 283° |
| 2026-05-06 09:50 | 57.79223 | 86.40832 | 33900 ft | 398 kts | 283° |
| 2026-05-06 09:51 | 57.80834 | 86.30913 | 33904 ft | 398 kts | 283° |
| 2026-05-06 09:51 | 57.82444 | 86.20965 | 33898 ft | 399 kts | 283° |
| 2026-05-06 09:52 | 57.84048 | 86.10975 | 33899 ft | 400 kts | 283° |
| 2026-05-06 09:52 | 57.85645 | 86.00967 | 33901 ft | 401 kts | 283° |
| 2026-05-06 09:53 | 57.87244 | 85.90932 | 33901 ft | 401 kts | 283° |
| 2026-05-06 09:53 | 57.88832 | 85.80866 | 33913 ft | 402 kts | 283° |
| 2026-05-06 09:54 | 57.90409 | 85.70764 | 33900 ft | 403 kts | 283° |
| 2026-05-06 09:54 | 57.91980 | 85.60645 | 33893 ft | 404 kts | 283° |
| 2026-05-06 09:55 | 57.93557 | 85.50474 | 33896 ft | 405 kts | 283° |
| 2026-05-06 09:55 | 57.95126 | 85.40277 | 33894 ft | 406 kts | 283° |
| 2026-05-06 09:56 | 57.96687 | 85.30036 | 33894 ft | 407 kts | 283° |
| 2026-05-06 09:56 | 57.98243 | 85.19775 | 33898 ft | 408 kts | 283° |
| 2026-05-06 09:57 | 57.99801 | 85.09479 | 33893 ft | 409 kts | 283° |
| 2026-05-06 09:57 | 58.01357 | 84.99143 | 33893 ft | 410 kts | 283° |
| 2026-05-06 09:58 | 58.02912 | 84.88766 | 33891 ft | 411 kts | 283° |
| 2026-05-06 09:58 | 58.04455 | 84.78364 | 33892 ft | 413 kts | 283° |
| 2026-05-06 09:59 | 58.05992 | 84.67914 | 33887 ft | 414 kts | 283° |
| 2026-05-06 09:59 | 58.07521 | 84.57428 | 33888 ft | 415 kts | 283° |
| 2026-05-06 10:00 | 58.09052 | 84.46885 | 33884 ft | 416 kts | 283° |
| 2026-05-06 10:00 | 58.10579 | 84.36320 | 33905 ft | 418 kts | 283° |
| 2026-05-06 10:01 | 58.12112 | 84.25685 | 33912 ft | 419 kts | 283° |
| 2026-05-06 10:01 | 58.13629 | 84.15032 | 33904 ft | 420 kts | 283° |
| 2026-05-06 10:02 | 58.15138 | 84.04351 | 33903 ft | 421 kts | 283° |
| 2026-05-06 10:02 | 58.16640 | 83.93651 | 33904 ft | 421 kts | 283° |
| 2026-05-06 10:03 | 58.18140 | 83.82931 | 33902 ft | 421 kts | 283° |
| 2026-05-06 10:03 | 58.19638 | 83.72201 | 33903 ft | 421 kts | 283° |
| 2026-05-06 10:04 | 58.21121 | 83.61457 | 33901 ft | 422 kts | 283° |
| 2026-05-06 10:04 | 58.22594 | 83.50681 | 33902 ft | 422 kts | 283° |
| 2026-05-06 10:05 | 58.24058 | 83.39893 | 33903 ft | 422 kts | 283° |
| 2026-05-06 10:05 | 58.25514 | 83.29079 | 33902 ft | 423 kts | 283° |
| 2026-05-06 10:06 | 58.26962 | 83.18267 | 33900 ft | 423 kts | 283° |
| 2026-05-06 10:06 | 58.28405 | 83.07436 | 33897 ft | 423 kts | 283° |
| 2026-05-06 10:07 | 58.29840 | 82.96590 | 33894 ft | 423 kts | 283° |
| 2026-05-06 10:07 | 58.31265 | 82.85730 | 33892 ft | 423 kts | 283° |
| 2026-05-06 10:08 | 58.32678 | 82.74856 | 33887 ft | 424 kts | 283° |
| 2026-05-06 10:08 | 58.34084 | 82.63954 | 33889 ft | 424 kts | 283° |
| 2026-05-06 10:09 | 58.35479 | 82.53068 | 33891 ft | 424 kts | 283° |
| 2026-05-06 10:09 | 58.36868 | 82.42172 | 33885 ft | 423 kts | 284° |
| 2026-05-06 10:10 | 58.38243 | 82.31271 | 33891 ft | 423 kts | 283° |
| 2026-05-06 10:10 | 58.39610 | 82.20365 | 33891 ft | 423 kts | 283° |
| 2026-05-06 10:11 | 58.40966 | 82.09475 | 33891 ft | 422 kts | 283° |
| 2026-05-06 10:11 | 58.42086 | 82.00413 | 33892 ft | 422 kts | 283° |
| 2026-05-06 10:12 | 58.43419 | 81.89517 | 33889 ft | 422 kts | 283° |
| 2026-05-06 10:12 | 58.44749 | 81.78618 | 33894 ft | 421 kts | 283° |
| 2026-05-06 10:13 | 58.46070 | 81.67732 | 33901 ft | 421 kts | 283° |
| 2026-05-06 10:13 | 58.47380 | 81.56835 | 33908 ft | 420 kts | 283° |
| 2026-05-06 10:14 | 58.48678 | 81.45958 | 33909 ft | 420 kts | 283° |
| 2026-05-06 10:14 | 58.49964 | 81.35071 | 33911 ft | 419 kts | 283° |
| 2026-05-06 10:15 | 58.51233 | 81.24217 | 33910 ft | 418 kts | 283° |
| 2026-05-06 10:15 | 58.52486 | 81.13372 | 33911 ft | 417 kts | 283° |
| 2026-05-06 10:16 | 58.53732 | 81.02543 | 33911 ft | 416 kts | 283° |
| 2026-05-06 10:16 | 58.54973 | 80.91738 | 33917 ft | 415 kts | 283° |
| 2026-05-06 10:17 | 58.56202 | 80.80949 | 33914 ft | 414 kts | 283° |
| 2026-05-06 10:17 | 58.57417 | 80.70163 | 33916 ft | 414 kts | 283° |
| 2026-05-06 10:18 | 58.58612 | 80.59397 | 33917 ft | 413 kts | 283° |
| 2026-05-06 10:18 | 58.59798 | 80.48649 | 33915 ft | 412 kts | 283° |
| 2026-05-06 10:19 | 58.60981 | 80.37909 | 33918 ft | 411 kts | 282° |
| 2026-05-06 10:19 | 58.62159 | 80.27181 | 33926 ft | 410 kts | 282° |
| 2026-05-06 10:20 | 58.63317 | 80.16469 | 33924 ft | 410 kts | 282° |
| 2026-05-06 10:20 | 58.64458 | 80.05772 | 33927 ft | 409 kts | 282° |
| 2026-05-06 10:21 | 58.65589 | 79.95049 | 34059 ft | 410 kts | 282° |
| 2026-05-06 10:21 | 58.66154 | 79.89689 | 34254 ft | 410 kts | 282° |
| 2026-05-06 10:21 | 58.66720 | 79.84316 | 34437 ft | 409 kts | 282° |
| 2026-05-06 10:22 | 58.67282 | 79.78969 | 34606 ft | 409 kts | 282° |
| 2026-05-06 10:22 | 58.67842 | 79.73601 | 34759 ft | 409 kts | 281° |
| 2026-05-06 10:22 | 58.68395 | 79.68243 | 34941 ft | 409 kts | 282° |
| 2026-05-06 10:22 | 58.69031 | 79.62907 | 35092 ft | 409 kts | 284° |
| 2026-05-06 10:23 | 58.69781 | 79.57640 | 35242 ft | 409 kts | 286° |
| 2026-05-06 10:23 | 58.70592 | 79.52399 | 35381 ft | 409 kts | 287° |
| 2026-05-06 10:23 | 58.71416 | 79.47178 | 35536 ft | 408 kts | 287° |
| 2026-05-06 10:23 | 58.72234 | 79.41952 | 35676 ft | 408 kts | 286° |
| 2026-05-06 10:24 | 58.73031 | 79.36729 | 35832 ft | 407 kts | 285° |
| 2026-05-06 10:24 | 58.73809 | 79.31470 | 35911 ft | 408 kts | 285° |
| 2026-05-06 10:24 | 58.75320 | 79.20925 | 35915 ft | 408 kts | 285° |
| 2026-05-06 10:25 | 58.76807 | 79.10396 | 35914 ft | 408 kts | 285° |
| 2026-05-06 10:25 | 58.78304 | 78.99852 | 35918 ft | 407 kts | 285° |
| 2026-05-06 10:26 | 58.79789 | 78.89324 | 35918 ft | 407 kts | 285° |
| 2026-05-06 10:26 | 58.81272 | 78.78780 | 35921 ft | 407 kts | 284° |
| 2026-05-06 10:27 | 58.82739 | 78.68238 | 35926 ft | 407 kts | 284° |
| 2026-05-06 10:27 | 58.84204 | 78.57710 | 35931 ft | 406 kts | 284° |
| 2026-05-06 10:28 | 58.85659 | 78.47167 | 35930 ft | 406 kts | 284° |
| 2026-05-06 10:28 | 58.87095 | 78.36629 | 35932 ft | 405 kts | 284° |
| 2026-05-06 10:29 | 58.88519 | 78.26098 | 35929 ft | 405 kts | 284° |
| 2026-05-06 10:29 | 58.89941 | 78.15573 | 35927 ft | 404 kts | 284° |
| 2026-05-06 10:30 | 58.91351 | 78.05047 | 35933 ft | 405 kts | 284° |
| 2026-05-06 10:30 | 58.92756 | 77.94500 | 35933 ft | 404 kts | 284° |
| 2026-05-06 10:31 | 58.94154 | 77.83962 | 35938 ft | 404 kts | 283° |
| 2026-05-06 10:31 | 58.95527 | 77.73423 | 35936 ft | 403 kts | 283° |
| 2026-05-06 10:32 | 58.96889 | 77.62886 | 35934 ft | 403 kts | 283° |
| 2026-05-06 10:32 | 58.98247 | 77.52364 | 35929 ft | 402 kts | 283° |
| 2026-05-06 10:33 | 58.99601 | 77.41847 | 35930 ft | 402 kts | 283° |
| 2026-05-06 10:33 | 59.00947 | 77.31319 | 35930 ft | 402 kts | 283° |
| 2026-05-06 10:34 | 59.02289 | 77.20794 | 35929 ft | 402 kts | 283° |
| 2026-05-06 10:34 | 59.03615 | 77.10257 | 35928 ft | 402 kts | 283° |
| 2026-05-06 10:35 | 59.04924 | 76.99703 | 35927 ft | 402 kts | 283° |
| 2026-05-06 10:35 | 59.06228 | 76.89143 | 35928 ft | 402 kts | 283° |
| 2026-05-06 10:36 | 59.07517 | 76.78586 | 35932 ft | 401 kts | 282° |
| 2026-05-06 10:36 | 59.08805 | 76.68029 | 35932 ft | 401 kts | 282° |
| 2026-05-06 10:37 | 59.10091 | 76.57469 | 35935 ft | 401 kts | 282° |
| 2026-05-06 10:37 | 59.11363 | 76.46904 | 35932 ft | 401 kts | 282° |
| 2026-05-06 10:38 | 59.12632 | 76.36342 | 35929 ft | 401 kts | 282° |
| 2026-05-06 10:38 | 59.13894 | 76.25769 | 35927 ft | 401 kts | 282° |
| 2026-05-06 10:39 | 59.15150 | 76.15204 | 35929 ft | 400 kts | 282° |
| 2026-05-06 10:39 | 59.16395 | 76.04635 | 35928 ft | 400 kts | 282° |
| 2026-05-06 10:40 | 59.17620 | 75.94051 | 35929 ft | 400 kts | 281° |
| 2026-05-06 10:40 | 59.18832 | 75.83458 | 35930 ft | 400 kts | 281° |
| 2026-05-06 10:41 | 59.20046 | 75.72871 | 35927 ft | 400 kts | 281° |
| 2026-05-06 10:41 | 59.21245 | 75.62276 | 35929 ft | 400 kts | 281° |
| 2026-05-06 10:42 | 59.22430 | 75.51683 | 35929 ft | 400 kts | 281° |
| 2026-05-06 10:42 | 59.23613 | 75.41071 | 35927 ft | 400 kts | 281° |
| 2026-05-06 10:43 | 59.24786 | 75.30453 | 35928 ft | 400 kts | 281° |
| 2026-05-06 10:44 | 59.26540 | 75.14526 | 35924 ft | 400 kts | 281° |
| 2026-05-06 10:44 | 59.27690 | 75.03902 | 35920 ft | 400 kts | 281° |
| 2026-05-06 10:45 | 59.28839 | 74.93264 | 35922 ft | 400 kts | 281° |
| 2026-05-06 10:45 | 59.29977 | 74.82610 | 35922 ft | 400 kts | 281° |
| 2026-05-06 10:46 | 59.31111 | 74.71881 | 35922 ft | 400 kts | 280° |
| 2026-05-06 10:46 | 59.32213 | 74.61281 | 35921 ft | 400 kts | 280° |
| 2026-05-06 10:47 | 59.33316 | 74.50615 | 35916 ft | 400 kts | 280° |
| 2026-05-06 10:47 | 59.34518 | 74.39990 | 35912 ft | 400 kts | 282° |
| 2026-05-06 10:48 | 59.35818 | 74.29387 | 35911 ft | 400 kts | 282° |
| 2026-05-06 10:48 | 59.37107 | 74.18774 | 35906 ft | 400 kts | 282° |
| 2026-05-06 10:49 | 59.38362 | 74.08129 | 35905 ft | 401 kts | 281° |
| 2026-05-06 10:49 | 59.39598 | 73.97469 | 35903 ft | 401 kts | 281° |
| 2026-05-06 10:50 | 59.40824 | 73.86787 | 35900 ft | 401 kts | 281° |
| 2026-05-06 10:50 | 59.42052 | 73.76103 | 35903 ft | 402 kts | 281° |
| 2026-05-06 10:51 | 59.43080 | 73.67132 | 35903 ft | 402 kts | 281° |
| 2026-05-06 10:51 | 59.44294 | 73.56400 | 35904 ft | 402 kts | 281° |
| 2026-05-06 10:52 | 59.45496 | 73.45669 | 35905 ft | 402 kts | 281° |
| 2026-05-06 10:52 | 59.46689 | 73.34916 | 35900 ft | 402 kts | 281° |
| 2026-05-06 10:53 | 59.47878 | 73.24160 | 35895 ft | 403 kts | 281° |
| 2026-05-06 10:53 | 59.49056 | 73.13395 | 35895 ft | 402 kts | 281° |
| 2026-05-06 10:54 | 59.50228 | 73.02618 | 35892 ft | 403 kts | 281° |
| 2026-05-06 10:54 | 59.51390 | 72.91847 | 35886 ft | 402 kts | 280° |
| 2026-05-06 10:55 | 59.52537 | 72.81059 | 35881 ft | 403 kts | 280° |
| 2026-05-06 10:55 | 59.53672 | 72.70247 | 35882 ft | 403 kts | 280° |
| 2026-05-06 10:56 | 59.54806 | 72.59408 | 35875 ft | 404 kts | 280° |
| 2026-05-06 10:56 | 59.55939 | 72.48568 | 35874 ft | 404 kts | 280° |
| 2026-05-06 10:57 | 59.57063 | 72.37706 | 35870 ft | 404 kts | 280° |
| 2026-05-06 10:57 | 59.58173 | 72.26838 | 35868 ft | 404 kts | 280° |
| 2026-05-06 10:58 | 59.59271 | 72.15960 | 35857 ft | 404 kts | 280° |
| 2026-05-06 10:58 | 59.60372 | 72.05054 | 35858 ft | 405 kts | 280° |
| 2026-05-06 10:59 | 59.61465 | 71.94151 | 35852 ft | 405 kts | 280° |
| 2026-05-06 10:59 | 59.62545 | 71.83230 | 35849 ft | 405 kts | 279° |
| 2026-05-06 11:00 | 59.63610 | 71.72291 | 35844 ft | 405 kts | 279° |
| 2026-05-06 11:00 | 59.64666 | 71.61350 | 35841 ft | 405 kts | 279° |
| 2026-05-06 11:01 | 59.65718 | 71.50394 | 35834 ft | 406 kts | 279° |
| 2026-05-06 11:01 | 59.66758 | 71.39428 | 35835 ft | 406 kts | 279° |
| 2026-05-06 11:02 | 59.67797 | 71.28430 | 35838 ft | 407 kts | 279° |
| 2026-05-06 11:02 | 59.68825 | 71.17412 | 35830 ft | 407 kts | 279° |
| 2026-05-06 11:03 | 59.69845 | 71.06385 | 35833 ft | 408 kts | 279° |
| 2026-05-06 11:03 | 59.70857 | 70.95328 | 35830 ft | 408 kts | 279° |
| 2026-05-06 11:04 | 59.71861 | 70.84247 | 35831 ft | 409 kts | 279° |
| 2026-05-06 11:04 | 59.72853 | 70.73132 | 35827 ft | 409 kts | 279° |
| 2026-05-06 11:05 | 59.73838 | 70.62011 | 35829 ft | 410 kts | 279° |
| 2026-05-06 11:05 | 59.74822 | 70.50892 | 35819 ft | 410 kts | 279° |
| 2026-05-06 11:06 | 59.75797 | 70.39750 | 35821 ft | 410 kts | 279° |
| 2026-05-06 11:06 | 59.76755 | 70.28585 | 35818 ft | 411 kts | 278° |
| 2026-05-06 11:07 | 59.77701 | 70.17392 | 35817 ft | 411 kts | 278° |
| 2026-05-06 11:07 | 59.78643 | 70.06210 | 35814 ft | 411 kts | 278° |
| 2026-05-06 11:08 | 59.79577 | 69.95018 | 35806 ft | 411 kts | 278° |
| 2026-05-06 11:08 | 59.80494 | 69.83886 | 35799 ft | 411 kts | 278° |
| 2026-05-06 11:09 | 59.81409 | 69.72685 | 35796 ft | 411 kts | 278° |
| 2026-05-06 11:09 | 59.82314 | 69.61490 | 35796 ft | 411 kts | 278° |
| 2026-05-06 11:10 | 59.83216 | 69.50248 | 35794 ft | 411 kts | 278° |
| 2026-05-06 11:10 | 59.84108 | 69.38990 | 35790 ft | 412 kts | 278° |
| 2026-05-06 11:11 | 59.84990 | 69.27728 | 35793 ft | 413 kts | 278° |
| 2026-05-06 11:11 | 59.85862 | 69.16439 | 35789 ft | 413 kts | 278° |
| 2026-05-06 11:12 | 59.86733 | 69.05147 | 35797 ft | 413 kts | 278° |
| 2026-05-06 11:12 | 59.87591 | 68.93848 | 35794 ft | 413 kts | 278° |
| 2026-05-06 11:13 | 59.88433 | 68.82539 | 35796 ft | 413 kts | 278° |
| 2026-05-06 11:13 | 59.89270 | 68.71224 | 35793 ft | 413 kts | 277° |
| 2026-05-06 11:14 | 59.90097 | 68.59900 | 35792 ft | 413 kts | 277° |
| 2026-05-06 11:14 | 59.90914 | 68.48574 | 35788 ft | 413 kts | 277° |
| 2026-05-06 11:15 | 59.91714 | 68.37238 | 35789 ft | 413 kts | 277° |
| 2026-05-06 11:15 | 59.92521 | 68.25822 | 35787 ft | 413 kts | 277° |
| 2026-05-06 11:16 | 59.93306 | 68.14543 | 35792 ft | 413 kts | 277° |
| 2026-05-06 11:16 | 59.94077 | 68.03189 | 35790 ft | 413 kts | 277° |
| 2026-05-06 11:17 | 59.94838 | 67.91825 | 35791 ft | 413 kts | 277° |
| 2026-05-06 11:17 | 59.95594 | 67.80456 | 35789 ft | 413 kts | 277° |
| 2026-05-06 11:18 | 59.96338 | 67.69074 | 35790 ft | 414 kts | 277° |
| 2026-05-06 11:18 | 59.97082 | 67.57679 | 35788 ft | 414 kts | 277° |
| 2026-05-06 11:19 | 59.97807 | 67.46274 | 35794 ft | 414 kts | 277° |
| 2026-05-06 11:19 | 59.98523 | 67.34888 | 35766 ft | 408 kts | 276° |
| 2026-05-06 11:20 | 59.99220 | 67.23735 | 35794 ft | 402 kts | 276° |
| 2026-05-06 11:20 | 59.99896 | 67.12667 | 35790 ft | 401 kts | 276° |
| 2026-05-06 11:21 | 60.00570 | 67.01612 | 35790 ft | 401 kts | 276° |
| 2026-05-06 11:21 | 60.01225 | 66.90550 | 35795 ft | 401 kts | 276° |
| 2026-05-06 11:22 | 60.01871 | 66.79479 | 35800 ft | 401 kts | 275° |
| 2026-05-06 11:22 | 60.02502 | 66.68402 | 35802 ft | 401 kts | 275° |
| 2026-05-06 11:23 | 60.03135 | 66.57320 | 35803 ft | 401 kts | 275° |
| 2026-05-06 11:23 | 60.03754 | 66.46236 | 35804 ft | 401 kts | 275° |
| 2026-05-06 11:24 | 60.04364 | 66.35146 | 35805 ft | 401 kts | 275° |
| 2026-05-06 11:24 | 60.04957 | 66.24052 | 35804 ft | 401 kts | 275° |
| 2026-05-06 11:25 | 60.05541 | 66.12966 | 35801 ft | 401 kts | 275° |
| 2026-05-06 11:25 | 60.06117 | 66.01865 | 35799 ft | 401 kts | 275° |
| 2026-05-06 11:26 | 60.06684 | 65.90691 | 35803 ft | 401 kts | 275° |
| 2026-05-06 11:26 | 60.07246 | 65.79581 | 35803 ft | 401 kts | 275° |
| 2026-05-06 11:27 | 60.07798 | 65.68519 | 35804 ft | 401 kts | 274° |
| 2026-05-06 11:27 | 60.08340 | 65.57332 | 35803 ft | 401 kts | 274° |
| 2026-05-06 11:28 | 60.08873 | 65.46201 | 35801 ft | 401 kts | 274° |
| 2026-05-06 11:28 | 60.09396 | 65.35068 | 35807 ft | 402 kts | 274° |
| 2026-05-06 11:29 | 60.09911 | 65.23914 | 35806 ft | 402 kts | 274° |
| 2026-05-06 11:29 | 60.10331 | 65.14650 | 35806 ft | 402 kts | 274° |
| 2026-05-06 11:30 | 60.10907 | 65.01604 | 35804 ft | 402 kts | 274° |
| 2026-05-06 11:30 | 60.11390 | 64.90456 | 35805 ft | 402 kts | 274° |
| 2026-05-06 11:31 | 60.11774 | 64.81172 | 35806 ft | 402 kts | 272° |
| 2026-05-06 11:31 | 60.12022 | 64.69990 | 35798 ft | 401 kts | 270° |
| 2026-05-06 11:32 | 60.12146 | 64.58798 | 35800 ft | 402 kts | 270° |
| 2026-05-06 11:32 | 60.12285 | 64.47609 | 35801 ft | 402 kts | 270° |
| 2026-05-06 11:33 | 60.12454 | 64.36406 | 35793 ft | 402 kts | 271° |
| 2026-05-06 11:33 | 60.12619 | 64.25210 | 35792 ft | 402 kts | 270° |
| 2026-05-06 11:34 | 60.12775 | 64.14007 | 35788 ft | 402 kts | 270° |
| 2026-05-06 11:34 | 60.12908 | 64.02802 | 35790 ft | 402 kts | 270° |
| 2026-05-06 11:35 | 60.13026 | 63.91589 | 35786 ft | 402 kts | 270° |
| 2026-05-06 11:35 | 60.13147 | 63.80373 | 35783 ft | 402 kts | 270° |
| 2026-05-06 11:36 | 60.13268 | 63.69141 | 35783 ft | 402 kts | 270° |
| 2026-05-06 11:36 | 60.13378 | 63.57923 | 35783 ft | 402 kts | 270° |
| 2026-05-06 11:37 | 60.13482 | 63.46710 | 35785 ft | 402 kts | 270° |
| 2026-05-06 11:37 | 60.13578 | 63.35476 | 35781 ft | 402 kts | 270° |
| 2026-05-06 11:38 | 60.13649 | 63.24249 | 35785 ft | 403 kts | 270° |
| 2026-05-06 11:38 | 60.13712 | 63.13015 | 35787 ft | 403 kts | 270° |
| 2026-05-06 11:39 | 60.13782 | 63.01759 | 35790 ft | 403 kts | 270° |
| 2026-05-06 11:39 | 60.13838 | 62.90505 | 35786 ft | 403 kts | 269° |
| 2026-05-06 11:40 | 60.13885 | 62.79264 | 35786 ft | 403 kts | 269° |
| 2026-05-06 11:40 | 60.13926 | 62.68011 | 35783 ft | 403 kts | 269° |
| 2026-05-06 11:41 | 60.13957 | 62.56762 | 35780 ft | 403 kts | 269° |
| 2026-05-06 11:41 | 60.13969 | 62.45504 | 35781 ft | 403 kts | 269° |
| 2026-05-06 11:42 | 60.13979 | 62.34250 | 35781 ft | 403 kts | 269° |
| 2026-05-06 11:42 | 60.13976 | 62.22999 | 35779 ft | 404 kts | 269° |
| 2026-05-06 11:43 | 60.13982 | 62.11727 | 35776 ft | 404 kts | 269° |
| 2026-05-06 11:43 | 60.13982 | 62.00458 | 35777 ft | 404 kts | 269° |
| 2026-05-06 11:44 | 60.13955 | 61.83567 | 35770 ft | 404 kts | 269° |
| 2026-05-06 11:44 | 60.13930 | 61.72294 | 35771 ft | 404 kts | 269° |
| 2026-05-06 11:45 | 60.13889 | 61.61032 | 35771 ft | 404 kts | 269° |
| 2026-05-06 11:45 | 60.13846 | 61.49757 | 35767 ft | 404 kts | 269° |
| 2026-05-06 11:46 | 60.13796 | 61.38483 | 35765 ft | 404 kts | 269° |
| 2026-05-06 11:46 | 60.13725 | 61.27223 | 35760 ft | 404 kts | 269° |
| 2026-05-06 11:47 | 60.13648 | 61.15959 | 35762 ft | 404 kts | 269° |
| 2026-05-06 11:47 | 60.13567 | 61.04689 | 35761 ft | 404 kts | 269° |
| 2026-05-06 11:48 | 60.13476 | 60.93422 | 35761 ft | 404 kts | 269° |
| 2026-05-06 11:48 | 60.13371 | 60.82148 | 35761 ft | 404 kts | 269° |
| 2026-05-06 11:49 | 60.13260 | 60.70877 | 35761 ft | 404 kts | 268° |
| 2026-05-06 11:49 | 60.13129 | 60.59613 | 35760 ft | 404 kts | 268° |
| 2026-05-06 11:50 | 60.12985 | 60.48361 | 35758 ft | 404 kts | 268° |
| 2026-05-06 11:50 | 60.12848 | 60.37101 | 35758 ft | 403 kts | 268° |
| 2026-05-06 11:51 | 60.12706 | 60.25847 | 35761 ft | 403 kts | 268° |
| 2026-05-06 11:51 | 60.12541 | 60.14602 | 35763 ft | 403 kts | 268° |
| 2026-05-06 11:52 | 60.12364 | 60.03366 | 35761 ft | 403 kts | 268° |
| 2026-05-06 11:52 | 60.12180 | 59.92124 | 35765 ft | 403 kts | 268° |
| 2026-05-06 11:53 | 60.11993 | 59.80892 | 35768 ft | 403 kts | 268° |
| 2026-05-06 11:53 | 60.11797 | 59.69670 | 35768 ft | 403 kts | 268° |
| 2026-05-06 11:54 | 60.11579 | 59.58454 | 35767 ft | 403 kts | 268° |
| 2026-05-06 11:54 | 60.11361 | 59.47230 | 35768 ft | 402 kts | 268° |
| 2026-05-06 11:55 | 60.11136 | 59.36025 | 35770 ft | 402 kts | 268° |
| 2026-05-06 11:55 | 60.10894 | 59.24830 | 35767 ft | 402 kts | 268° |
| 2026-05-06 11:56 | 60.10647 | 59.13645 | 35764 ft | 402 kts | 268° |
| 2026-05-06 11:56 | 60.10390 | 59.02459 | 35766 ft | 402 kts | 267° |
| 2026-05-06 11:57 | 60.10123 | 58.91270 | 35766 ft | 402 kts | 267° |
| 2026-05-06 11:57 | 60.09853 | 58.80094 | 35762 ft | 401 kts | 267° |
| 2026-05-06 11:58 | 60.09573 | 58.68918 | 35757 ft | 402 kts | 267° |
| 2026-05-06 11:58 | 60.09277 | 58.57735 | 35760 ft | 402 kts | 267° |
| 2026-05-06 11:59 | 60.08974 | 58.46548 | 35756 ft | 402 kts | 267° |
| 2026-05-06 11:59 | 60.08657 | 58.35373 | 35757 ft | 402 kts | 267° |
| 2026-05-06 12:00 | 60.08333 | 58.24197 | 35750 ft | 402 kts | 267° |
| 2026-05-06 12:00 | 60.08005 | 58.13034 | 35750 ft | 402 kts | 266° |
| 2026-05-06 12:01 | 60.07665 | 58.01851 | 35763 ft | 402 kts | 266° |
| 2026-05-06 12:01 | 60.07310 | 57.90685 | 35763 ft | 402 kts | 266° |
| 2026-05-06 12:02 | 60.06944 | 57.79527 | 35757 ft | 402 kts | 266° |
| 2026-05-06 12:02 | 60.06580 | 57.68366 | 35757 ft | 402 kts | 266° |
| 2026-05-06 12:03 | 60.06221 | 57.57201 | 35756 ft | 402 kts | 266° |
| 2026-05-06 12:03 | 60.05850 | 57.46042 | 35760 ft | 402 kts | 266° |
| 2026-05-06 12:04 | 60.05472 | 57.34882 | 35763 ft | 402 kts | 266° |
| 2026-05-06 12:04 | 60.05089 | 57.23715 | 35765 ft | 402 kts | 266° |
| 2026-05-06 12:05 | 60.04693 | 57.12569 | 35763 ft | 401 kts | 266° |
| 2026-05-06 12:05 | 60.04286 | 57.01437 | 35761 ft | 401 kts | 266° |
| 2026-05-06 12:06 | 60.03872 | 56.90319 | 35759 ft | 401 kts | 266° |
| 2026-05-06 12:06 | 60.03450 | 56.79212 | 35760 ft | 401 kts | 266° |
| 2026-05-06 12:07 | 60.03015 | 56.68089 | 35762 ft | 401 kts | 266° |
| 2026-05-06 12:07 | 60.02572 | 56.56991 | 35765 ft | 400 kts | 265° |
| 2026-05-06 12:08 | 60.02122 | 56.45908 | 35765 ft | 400 kts | 265° |
| 2026-05-06 12:08 | 60.01661 | 56.34822 | 35766 ft | 400 kts | 265° |
| 2026-05-06 12:09 | 60.01193 | 56.23759 | 35763 ft | 399 kts | 265° |
| 2026-05-06 12:09 | 60.00709 | 56.12708 | 35761 ft | 399 kts | 265° |
| 2026-05-06 12:10 | 60.00221 | 56.01656 | 35761 ft | 399 kts | 265° |
| 2026-05-06 12:10 | 59.99724 | 55.90635 | 35761 ft | 398 kts | 265° |
| 2026-05-06 12:11 | 59.99306 | 55.81480 | 35761 ft | 398 kts | 265° |
| 2026-05-06 12:11 | 59.98795 | 55.70464 | 35765 ft | 398 kts | 265° |
| 2026-05-06 12:12 | 59.98277 | 55.59451 | 35763 ft | 398 kts | 265° |
| 2026-05-06 12:12 | 59.97741 | 55.48458 | 35762 ft | 398 kts | 264° |
| 2026-05-06 12:13 | 59.97186 | 55.37472 | 35765 ft | 398 kts | 264° |
| 2026-05-06 12:13 | 59.96508 | 55.26523 | 35765 ft | 397 kts | 263° |
| 2026-05-06 12:14 | 59.95773 | 55.15595 | 35762 ft | 397 kts | 263° |
| 2026-05-06 12:14 | 59.95041 | 55.04686 | 35764 ft | 397 kts | 263° |
| 2026-05-06 12:15 | 59.94308 | 54.93776 | 35760 ft | 396 kts | 263° |
| 2026-05-06 12:15 | 59.93570 | 54.82885 | 35758 ft | 396 kts | 263° |
| 2026-05-06 12:16 | 59.92838 | 54.71996 | 35756 ft | 396 kts | 263° |
| 2026-05-06 12:16 | 59.92089 | 54.61197 | 35752 ft | 396 kts | 262° |
| 2026-05-06 12:17 | 59.91327 | 54.50347 | 35751 ft | 396 kts | 262° |
| 2026-05-06 12:17 | 59.90564 | 54.39489 | 35752 ft | 395 kts | 262° |
| 2026-05-06 12:18 | 59.89790 | 54.28650 | 35752 ft | 395 kts | 262° |
| 2026-05-06 12:18 | 59.88992 | 54.17830 | 35743 ft | 395 kts | 262° |
| 2026-05-06 12:19 | 59.88200 | 54.07008 | 35743 ft | 395 kts | 262° |
| 2026-05-06 12:19 | 59.87415 | 53.96186 | 35743 ft | 395 kts | 262° |
| 2026-05-06 12:20 | 59.86615 | 53.85378 | 35745 ft | 395 kts | 262° |
| 2026-05-06 12:20 | 59.85800 | 53.74569 | 35744 ft | 395 kts | 262° |
| 2026-05-06 12:21 | 59.84986 | 53.63774 | 35745 ft | 395 kts | 262° |
| 2026-05-06 12:21 | 59.84155 | 53.52985 | 35746 ft | 395 kts | 262° |
| 2026-05-06 12:22 | 59.83312 | 53.42209 | 35744 ft | 394 kts | 262° |
| 2026-05-06 12:22 | 59.82473 | 53.31443 | 35748 ft | 394 kts | 262° |
| 2026-05-06 12:23 | 59.81622 | 53.20689 | 35746 ft | 394 kts | 261° |
| 2026-05-06 12:23 | 59.80761 | 53.09951 | 35743 ft | 394 kts | 261° |
| 2026-05-06 12:24 | 59.79881 | 52.99217 | 35742 ft | 394 kts | 261° |
| 2026-05-06 12:24 | 59.79008 | 52.88495 | 35744 ft | 394 kts | 261° |
| 2026-05-06 12:25 | 59.78130 | 52.77769 | 35740 ft | 394 kts | 261° |
| 2026-05-06 12:25 | 59.77227 | 52.67063 | 35739 ft | 394 kts | 261° |
| 2026-05-06 12:26 | 59.76311 | 52.56354 | 35740 ft | 393 kts | 261° |
| 2026-05-06 12:26 | 59.75396 | 52.45651 | 35733 ft | 393 kts | 261° |
| 2026-05-06 12:27 | 59.74479 | 52.34967 | 35734 ft | 393 kts | 261° |
| 2026-05-06 12:27 | 59.73553 | 52.24279 | 35735 ft | 393 kts | 261° |
| 2026-05-06 12:28 | 59.72613 | 52.13635 | 35736 ft | 393 kts | 261° |
| 2026-05-06 12:28 | 59.71662 | 52.02961 | 35731 ft | 393 kts | 261° |
| 2026-05-06 12:29 | 59.70706 | 51.92290 | 35732 ft | 392 kts | 261° |
| 2026-05-06 12:29 | 59.69743 | 51.81663 | 35733 ft | 392 kts | 260° |
| 2026-05-06 12:30 | 59.68770 | 51.71039 | 35733 ft | 392 kts | 260° |
| 2026-05-06 12:30 | 59.67787 | 51.60420 | 35732 ft | 392 kts | 260° |
| 2026-05-06 12:31 | 59.66801 | 51.49822 | 35728 ft | 392 kts | 260° |
| 2026-05-06 12:31 | 59.65802 | 51.39208 | 35729 ft | 392 kts | 260° |
| 2026-05-06 12:32 | 59.64806 | 51.28697 | 35729 ft | 392 kts | 260° |
| 2026-05-06 12:32 | 59.63788 | 51.18118 | 35724 ft | 391 kts | 259° |
| 2026-05-06 12:33 | 59.62760 | 51.07560 | 35724 ft | 391 kts | 259° |
| 2026-05-06 12:33 | 59.61722 | 50.96940 | 35723 ft | 391 kts | 259° |
| 2026-05-06 12:34 | 59.60672 | 50.86464 | 35724 ft | 391 kts | 257° |
| 2026-05-06 12:34 | 59.58894 | 50.76230 | 35719 ft | 391 kts | 251° |
| 2026-05-06 12:35 | 59.57058 | 50.66205 | 35711 ft | 391 kts | 251° |
| 2026-05-06 12:35 | 59.55202 | 50.56117 | 35707 ft | 391 kts | 251° |
| 2026-05-06 12:36 | 59.53320 | 50.45993 | 35702 ft | 391 kts | 251° |
| 2026-05-06 12:36 | 59.51440 | 50.35942 | 35697 ft | 391 kts | 251° |
| 2026-05-06 12:37 | 59.49529 | 50.25913 | 35698 ft | 391 kts | 251° |
| 2026-05-06 12:37 | 59.47607 | 50.15886 | 35696 ft | 392 kts | 251° |
| 2026-05-06 12:38 | 59.45688 | 50.05928 | 35702 ft | 392 kts | 251° |
| 2026-05-06 12:38 | 59.43743 | 49.95845 | 35705 ft | 392 kts | 251° |
| 2026-05-06 12:39 | 59.41801 | 49.85826 | 35714 ft | 392 kts | 250° |
| 2026-05-06 12:39 | 59.39857 | 49.75891 | 35716 ft | 392 kts | 250° |
| 2026-05-06 12:40 | 59.37887 | 49.65839 | 35717 ft | 392 kts | 250° |
| 2026-05-06 12:40 | 59.35933 | 49.55924 | 35726 ft | 392 kts | 250° |
| 2026-05-06 12:41 | 59.33946 | 49.45893 | 35727 ft | 392 kts | 250° |
| 2026-05-06 12:41 | 59.31964 | 49.35950 | 35729 ft | 392 kts | 250° |
| 2026-05-06 12:42 | 59.29976 | 49.26013 | 35731 ft | 392 kts | 250° |
| 2026-05-06 12:42 | 59.27998 | 49.16155 | 35732 ft | 392 kts | 250° |
| 2026-05-06 12:43 | 59.25999 | 49.06252 | 35734 ft | 391 kts | 250° |
| 2026-05-06 12:43 | 59.23987 | 48.96372 | 35736 ft | 391 kts | 249° |
| 2026-05-06 12:44 | 59.21969 | 48.86505 | 35736 ft | 391 kts | 249° |
| 2026-05-06 12:44 | 59.19949 | 48.76648 | 35737 ft | 391 kts | 249° |
| 2026-05-06 12:45 | 59.17936 | 48.66786 | 35741 ft | 391 kts | 249° |
| 2026-05-06 12:46 | 59.14890 | 48.52007 | 35742 ft | 392 kts | 249° |
| 2026-05-06 12:46 | 59.12851 | 48.42163 | 35749 ft | 392 kts | 249° |
| 2026-05-06 12:47 | 59.10792 | 48.32323 | 35751 ft | 392 kts | 249° |
| 2026-05-06 12:47 | 59.08737 | 48.22488 | 35750 ft | 393 kts | 249° |
| 2026-05-06 12:48 | 59.06675 | 48.12661 | 35756 ft | 393 kts | 248° |
| 2026-05-06 12:48 | 59.04600 | 48.02838 | 35758 ft | 393 kts | 248° |
| 2026-05-06 12:49 | 59.02512 | 47.93031 | 35763 ft | 393 kts | 248° |
| 2026-05-06 12:49 | 59.00419 | 47.83230 | 35763 ft | 393 kts | 248° |
| 2026-05-06 12:50 | 58.98324 | 47.73457 | 35764 ft | 392 kts | 248° |
| 2026-05-06 12:50 | 58.96228 | 47.63712 | 35760 ft | 392 kts | 248° |
| 2026-05-06 12:51 | 58.94117 | 47.53974 | 35763 ft | 392 kts | 248° |
| 2026-05-06 12:51 | 58.91999 | 47.44255 | 35760 ft | 392 kts | 248° |
| 2026-05-06 12:52 | 58.89883 | 47.34546 | 35764 ft | 392 kts | 248° |
| 2026-05-06 12:52 | 58.87758 | 47.24832 | 35764 ft | 392 kts | 247° |
| 2026-05-06 12:53 | 58.85632 | 47.15151 | 35762 ft | 392 kts | 247° |
| 2026-05-06 12:53 | 58.83852 | 47.07102 | 35763 ft | 392 kts | 247° |
| 2026-05-06 12:54 | 58.81700 | 46.97438 | 35768 ft | 392 kts | 247° |
| 2026-05-06 12:54 | 58.79541 | 46.87775 | 35774 ft | 392 kts | 247° |
| 2026-05-06 12:55 | 58.77363 | 46.78065 | 35774 ft | 392 kts | 247° |
| 2026-05-06 12:55 | 58.75211 | 46.68489 | 35785 ft | 392 kts | 247° |
| 2026-05-06 12:56 | 58.73027 | 46.58784 | 35790 ft | 393 kts | 247° |
| 2026-05-06 12:56 | 58.70857 | 46.49249 | 35785 ft | 391 kts | 246° |
| 2026-05-06 12:57 | 58.68665 | 46.39677 | 35785 ft | 391 kts | 246° |
| 2026-05-06 12:57 | 58.66469 | 46.30113 | 35787 ft | 391 kts | 246° |
| 2026-05-06 12:58 | 58.64268 | 46.20554 | 35793 ft | 391 kts | 246° |
| 2026-05-06 12:58 | 58.62065 | 46.11006 | 35801 ft | 391 kts | 246° |
| 2026-05-06 12:59 | 58.59851 | 46.01483 | 35813 ft | 391 kts | 246° |
| 2026-05-06 12:59 | 58.57626 | 45.91980 | 35814 ft | 391 kts | 246° |
| 2026-05-06 13:00 | 58.55384 | 45.82420 | 35797 ft | 391 kts | 246° |
| 2026-05-06 13:00 | 58.53438 | 45.72822 | 35817 ft | 390 kts | 256° |
| 2026-05-06 13:01 | 58.52111 | 45.62761 | 35817 ft | 390 kts | 255° |
| 2026-05-06 13:01 | 58.50773 | 45.52714 | 35804 ft | 390 kts | 255° |
| 2026-05-06 13:02 | 58.49415 | 45.42688 | 35819 ft | 389 kts | 255° |
| 2026-05-06 13:02 | 58.48047 | 45.32670 | 35816 ft | 389 kts | 255° |
| 2026-05-06 13:03 | 58.46675 | 45.22662 | 35817 ft | 389 kts | 254° |
| 2026-05-06 13:03 | 58.45291 | 45.12656 | 35821 ft | 390 kts | 254° |
| 2026-05-06 13:04 | 58.43908 | 45.02663 | 35811 ft | 390 kts | 254° |
| 2026-05-06 13:04 | 58.42514 | 44.92663 | 35808 ft | 390 kts | 254° |
| 2026-05-06 13:05 | 58.41107 | 44.82680 | 35824 ft | 390 kts | 254° |
| 2026-05-06 13:05 | 58.39694 | 44.72701 | 35824 ft | 390 kts | 254° |
| 2026-05-06 13:06 | 58.38269 | 44.62650 | 35825 ft | 390 kts | 254° |
| 2026-05-06 13:06 | 58.36854 | 44.52741 | 35812 ft | 390 kts | 254° |
| 2026-05-06 13:07 | 58.35407 | 44.42696 | 35807 ft | 391 kts | 254° |
| 2026-05-06 13:07 | 58.33970 | 44.32792 | 35817 ft | 391 kts | 254° |
| 2026-05-06 13:08 | 58.32501 | 44.22762 | 35817 ft | 391 kts | 254° |
| 2026-05-06 13:08 | 58.31036 | 44.12789 | 35823 ft | 392 kts | 254° |
| 2026-05-06 13:09 | 58.29567 | 44.02813 | 35827 ft | 392 kts | 254° |
| 2026-05-06 13:09 | 58.28095 | 43.92912 | 35822 ft | 392 kts | 254° |
| 2026-05-06 13:10 | 58.26607 | 43.82940 | 35835 ft | 392 kts | 254° |
| 2026-05-06 13:10 | 58.25099 | 43.72906 | 35822 ft | 393 kts | 254° |
| 2026-05-06 13:11 | 58.23600 | 43.63006 | 35831 ft | 393 kts | 254° |
| 2026-05-06 13:11 | 58.22077 | 43.53044 | 35829 ft | 393 kts | 253° |
| 2026-05-06 13:12 | 58.20546 | 43.43076 | 35832 ft | 394 kts | 254° |
| 2026-05-06 13:12 | 58.19015 | 43.33118 | 35838 ft | 394 kts | 254° |
| 2026-05-06 13:13 | 58.17724 | 43.24763 | 35842 ft | 394 kts | 253° |
| 2026-05-06 13:13 | 58.15924 | 43.13185 | 35836 ft | 394 kts | 254° |
| 2026-05-06 13:14 | 58.14686 | 43.05257 | 35843 ft | 395 kts | 254° |
| 2026-05-06 13:14 | 58.13122 | 42.95298 | 35834 ft | 395 kts | 253° |
| 2026-05-06 13:15 | 58.11544 | 42.85351 | 35834 ft | 395 kts | 253° |
| 2026-05-06 13:15 | 58.09952 | 42.75403 | 35842 ft | 395 kts | 253° |
| 2026-05-06 13:16 | 58.08359 | 42.65449 | 35835 ft | 396 kts | 254° |
| 2026-05-06 13:16 | 58.06763 | 42.55501 | 35837 ft | 396 kts | 253° |
| 2026-05-06 13:17 | 58.05150 | 42.45557 | 35843 ft | 396 kts | 253° |
| 2026-05-06 13:17 | 58.03527 | 42.35616 | 35847 ft | 396 kts | 253° |
| 2026-05-06 13:18 | 58.01902 | 42.25681 | 35847 ft | 396 kts | 253° |
| 2026-05-06 13:18 | 58.00267 | 42.15756 | 35846 ft | 397 kts | 253° |
| 2026-05-06 13:19 | 57.98616 | 42.05828 | 35847 ft | 397 kts | 253° |
| 2026-05-06 13:19 | 57.96957 | 41.95911 | 35842 ft | 397 kts | 253° |
| 2026-05-06 13:20 | 57.95293 | 41.85993 | 35851 ft | 397 kts | 253° |
| 2026-05-06 13:20 | 57.93625 | 41.76087 | 35847 ft | 397 kts | 253° |
| 2026-05-06 13:21 | 57.91942 | 41.66175 | 35835 ft | 397 kts | 253° |
| 2026-05-06 13:21 | 57.90253 | 41.56286 | 35840 ft | 397 kts | 253° |
| 2026-05-06 13:22 | 57.88571 | 41.46383 | 35845 ft | 398 kts | 254° |
| 2026-05-06 13:22 | 57.86901 | 41.36475 | 35846 ft | 398 kts | 253° |
| 2026-05-06 13:23 | 57.85205 | 41.26598 | 35838 ft | 398 kts | 253° |
| 2026-05-06 13:23 | 57.83498 | 41.16712 | 35841 ft | 398 kts | 253° |
| 2026-05-06 13:24 | 57.81785 | 41.06841 | 35842 ft | 398 kts | 253° |
| 2026-05-06 13:24 | 57.80072 | 40.96990 | 35836 ft | 398 kts | 253° |
| 2026-05-06 13:25 | 57.78353 | 40.87161 | 35836 ft | 397 kts | 253° |
| 2026-05-06 13:25 | 57.76623 | 40.77312 | 35834 ft | 397 kts | 253° |
| 2026-05-06 13:26 | 57.74928 | 40.67727 | 35839 ft | 397 kts | 253° |
| 2026-05-06 13:26 | 57.73175 | 40.57923 | 35847 ft | 397 kts | 253° |
| 2026-05-06 13:27 | 57.71414 | 40.48130 | 35848 ft | 397 kts | 253° |
| 2026-05-06 13:27 | 57.69663 | 40.38334 | 35856 ft | 397 kts | 253° |
| 2026-05-06 13:28 | 57.67897 | 40.28548 | 35856 ft | 398 kts | 253° |
| 2026-05-06 13:28 | 57.66112 | 40.18772 | 35862 ft | 398 kts | 253° |
| 2026-05-06 13:29 | 57.64328 | 40.08992 | 35864 ft | 398 kts | 253° |
| 2026-05-06 13:29 | 57.62544 | 39.99208 | 35864 ft | 398 kts | 253° |
| 2026-05-06 13:30 | 57.60756 | 39.89522 | 35858 ft | 398 kts | 253° |
| 2026-05-06 13:30 | 57.58930 | 39.79714 | 35856 ft | 398 kts | 253° |
| 2026-05-06 13:31 | 57.57129 | 39.70036 | 35851 ft | 398 kts | 253° |
| 2026-05-06 13:31 | 57.55305 | 39.60296 | 35850 ft | 398 kts | 253° |
| 2026-05-06 13:32 | 57.54085 | 39.53775 | 35845 ft | 399 kts | 253° |
| 2026-05-06 13:32 | 57.51619 | 39.40742 | 35534 ft | 407 kts | 253° |
| 2026-05-06 13:32 | 57.50669 | 39.35776 | 35275 ft | 407 kts | 253° |
| 2026-05-06 13:33 | 57.49718 | 39.30811 | 35025 ft | 406 kts | 253° |
| 2026-05-06 13:33 | 57.48776 | 39.25883 | 34781 ft | 404 kts | 254° |
| 2026-05-06 13:33 | 57.48141 | 39.22576 | 34614 ft | 402 kts | 254° |
| 2026-05-06 13:33 | 57.46908 | 39.16119 | 34287 ft | 398 kts | 254° |
| 2026-05-06 13:34 | 57.45988 | 39.11280 | 33947 ft | 395 kts | 255° |
| 2026-05-06 13:34 | 57.45076 | 39.06512 | 33416 ft | 391 kts | 255° |
| 2026-05-06 13:34 | 57.44163 | 39.01792 | 32885 ft | 386 kts | 255° |
| 2026-05-06 13:34 | 57.43259 | 38.97139 | 32354 ft | 381 kts | 255° |
| 2026-05-06 13:35 | 57.42362 | 38.92531 | 31853 ft | 377 kts | 255° |
| 2026-05-06 13:35 | 57.41763 | 38.89448 | 31514 ft | 375 kts | 255° |
| 2026-05-06 13:35 | 57.40910 | 38.85037 | 31030 ft | 371 kts | 255° |
| 2026-05-06 13:35 | 57.40038 | 38.80546 | 30535 ft | 368 kts | 255° |
| 2026-05-06 13:36 | 57.39173 | 38.76097 | 30051 ft | 365 kts | 255° |
| 2026-05-06 13:36 | 57.38313 | 38.71693 | 29526 ft | 362 kts | 255° |
| 2026-05-06 13:36 | 57.37460 | 38.67332 | 29038 ft | 358 kts | 254° |
| 2026-05-06 13:36 | 57.36616 | 38.63046 | 28570 ft | 354 kts | 254° |
| 2026-05-06 13:37 | 57.35767 | 38.58773 | 28124 ft | 350 kts | 254° |
| 2026-05-06 13:37 | 57.34929 | 38.54575 | 27667 ft | 346 kts | 254° |
| 2026-05-06 13:37 | 57.34102 | 38.50422 | 27233 ft | 342 kts | 254° |
| 2026-05-06 13:37 | 57.33290 | 38.46307 | 26804 ft | 338 kts | 253° |
| 2026-05-06 13:38 | 57.32482 | 38.42246 | 26394 ft | 335 kts | 253° |
| 2026-05-06 13:38 | 57.31679 | 38.38222 | 25978 ft | 331 kts | 253° |
| 2026-05-06 13:38 | 57.30881 | 38.34249 | 25567 ft | 328 kts | 251° |
| 2026-05-06 13:38 | 57.29856 | 38.30476 | 25156 ft | 329 kts | 244° |
| 2026-05-06 13:39 | 57.29094 | 38.28066 | 24889 ft | 327 kts | 244° |
| 2026-05-06 13:39 | 57.27557 | 38.23252 | 24328 ft | 324 kts | 244° |
| 2026-05-06 13:39 | 57.26194 | 38.19885 | 23576 ft | 338 kts | 228° |
| 2026-05-06 13:39 | 57.24246 | 38.17346 | 22624 ft | 345 kts | 218° |
| 2026-05-06 13:40 | 57.22209 | 38.15022 | 22106 ft | 342 kts | 218° |
| 2026-05-06 13:40 | 57.20192 | 38.12735 | 21683 ft | 339 kts | 218° |
| 2026-05-06 13:40 | 57.18191 | 38.10465 | 21266 ft | 336 kts | 218° |
| 2026-05-06 13:40 | 57.16214 | 38.08212 | 20845 ft | 333 kts | 218° |
| 2026-05-06 13:41 | 57.14260 | 38.05971 | 20430 ft | 330 kts | 218° |
| 2026-05-06 13:41 | 57.12318 | 38.03739 | 20017 ft | 328 kts | 218° |
| 2026-05-06 13:41 | 57.10389 | 38.01533 | 19607 ft | 326 kts | 217° |
| 2026-05-06 13:41 | 57.08468 | 37.99342 | 19200 ft | 324 kts | 217° |
| 2026-05-06 13:42 | 57.06556 | 37.97171 | 18795 ft | 322 kts | 217° |
| 2026-05-06 13:42 | 57.04650 | 37.95010 | 18394 ft | 321 kts | 217° |
| 2026-05-06 13:42 | 57.02754 | 37.92856 | 17965 ft | 320 kts | 217° |
| 2026-05-06 13:42 | 57.00872 | 37.90712 | 17557 ft | 318 kts | 217° |
| 2026-05-06 13:43 | 56.99001 | 37.88587 | 17164 ft | 315 kts | 217° |
| 2026-05-06 13:43 | 56.97143 | 37.86479 | 16793 ft | 313 kts | 217° |
| 2026-05-06 13:43 | 56.95298 | 37.84393 | 16407 ft | 310 kts | 217° |
| 2026-05-06 13:43 | 56.93463 | 37.82327 | 16023 ft | 309 kts | 217° |
| 2026-05-06 13:44 | 56.91642 | 37.80277 | 15644 ft | 306 kts | 217° |
| 2026-05-06 13:44 | 56.89833 | 37.78237 | 15277 ft | 305 kts | 217° |
| 2026-05-06 13:44 | 56.88033 | 37.76206 | 14907 ft | 303 kts | 217° |
| 2026-05-06 13:44 | 56.86243 | 37.74191 | 14534 ft | 301 kts | 217° |
| 2026-05-06 13:45 | 56.84462 | 37.72188 | 14160 ft | 300 kts | 217° |
| 2026-05-06 13:45 | 56.80920 | 37.68209 | 13407 ft | 298 kts | 217° |
| 2026-05-06 13:45 | 56.79165 | 37.66246 | 13028 ft | 295 kts | 217° |
| 2026-05-06 13:46 | 56.77419 | 37.64304 | 12653 ft | 293 kts | 217° |
| 2026-05-06 13:46 | 56.75681 | 37.62391 | 12316 ft | 291 kts | 214° |
| 2026-05-06 13:46 | 56.73794 | 37.61156 | 12250 ft | 286 kts | 201° |
| 2026-05-06 13:46 | 56.71898 | 37.60278 | 12182 ft | 280 kts | 201° |
| 2026-05-06 13:47 | 56.70004 | 37.59398 | 11959 ft | 281 kts | 201° |
| 2026-05-06 13:47 | 56.68113 | 37.58521 | 11619 ft | 280 kts | 201° |
| 2026-05-06 13:47 | 56.66232 | 37.57650 | 11346 ft | 279 kts | 201° |
| 2026-05-06 13:47 | 56.64358 | 37.56769 | 11036 ft | 276 kts | 204° |
| 2026-05-06 13:48 | 56.62744 | 37.55313 | 10977 ft | 265 kts | 224° |
| 2026-05-06 13:48 | 56.61409 | 37.53069 | 10915 ft | 262 kts | 229° |
| 2026-05-06 13:48 | 56.60096 | 37.50763 | 10862 ft | 263 kts | 229° |
| 2026-05-06 13:48 | 56.58610 | 37.48803 | 10802 ft | 271 kts | 210° |
| 2026-05-06 13:49 | 56.56724 | 37.48117 | 10742 ft | 286 kts | 184° |
| 2026-05-06 13:49 | 56.54728 | 37.48579 | 10671 ft | 291 kts | 178° |
| 2026-05-06 13:49 | 56.52724 | 37.49158 | 10615 ft | 292 kts | 178° |
| 2026-05-06 13:49 | 56.50723 | 37.49757 | 10387 ft | 292 kts | 177° |
| 2026-05-06 13:50 | 56.48723 | 37.50360 | 10128 ft | 291 kts | 177° |
| 2026-05-06 13:50 | 56.46708 | 37.50962 | 10041 ft | 295 kts | 177° |
| 2026-05-06 13:50 | 56.44679 | 37.51556 | 9749 ft | 298 kts | 178° |
| 2026-05-06 13:50 | 56.42648 | 37.52146 | 9221 ft | 294 kts | 177° |
| 2026-05-06 13:51 | 56.40621 | 37.52728 | 8771 ft | 295 kts | 177° |
| 2026-05-06 13:51 | 56.38615 | 37.53302 | 8391 ft | 292 kts | 177° |
| 2026-05-06 13:51 | 56.36610 | 37.53880 | 7893 ft | 290 kts | 177° |
| 2026-05-06 13:51 | 56.34623 | 37.54455 | 7453 ft | 288 kts | 176° |
| 2026-05-06 13:52 | 56.32667 | 37.55021 | 6970 ft | 284 kts | 176° |
| 2026-05-06 13:52 | 56.30714 | 37.55581 | 6553 ft | 283 kts | 176° |
| 2026-05-06 13:52 | 56.28767 | 37.56138 | 6164 ft | 282 kts | 176° |
| 2026-05-06 13:52 | 56.26833 | 37.56691 | 5629 ft | 279 kts | 175° |
| 2026-05-06 13:53 | 56.24919 | 37.57238 | 5236 ft | 278 kts | 174° |
| 2026-05-06 13:53 | 56.23059 | 37.57774 | 5109 ft | 267 kts | 174° |
| 2026-05-06 13:53 | 56.21266 | 37.58309 | 4977 ft | 256 kts | 171° |
| 2026-05-06 13:53 | 56.19688 | 37.59362 | 4822 ft | 252 kts | 153° |
| 2026-05-06 13:54 | 56.18551 | 37.60891 | 4574 ft | 252 kts | 136° |
| 2026-05-06 13:54 | 56.17320 | 37.63211 | 4442 ft | 248 kts | 135° |
| 2026-05-06 13:54 | 56.16121 | 37.65431 | 4306 ft | 248 kts | 136° |
| 2026-05-06 13:54 | 56.14914 | 37.67639 | 4200 ft | 247 kts | 136° |
| 2026-05-06 13:55 | 56.13716 | 37.69821 | 4064 ft | 246 kts | 136° |
| 2026-05-06 13:55 | 56.12521 | 37.71996 | 3931 ft | 242 kts | 136° |
| 2026-05-06 13:55 | 56.11370 | 37.74096 | 3807 ft | 231 kts | 137° |
| 2026-05-06 13:55 | 56.10207 | 37.76007 | 3673 ft | 222 kts | 151° |
| 2026-05-06 13:56 | 56.08812 | 37.76937 | 3544 ft | 210 kts | 177° |
| 2026-05-06 13:56 | 56.07397 | 37.76735 | 3451 ft | 199 kts | 202° |
| 2026-05-06 13:56 | 56.06129 | 37.75980 | 3358 ft | 187 kts | 202° |
| 2026-05-06 13:56 | 56.04921 | 37.75292 | 3222 ft | 178 kts | 201° |
| 2026-05-06 13:57 | 56.03773 | 37.74650 | 3085 ft | 168 kts | 203° |
| 2026-05-06 13:57 | 56.02723 | 37.73929 | 2938 ft | 155 kts | 217° |
| 2026-05-06 13:57 | 56.01961 | 37.72734 | 2826 ft | 143 kts | 237° |
| 2026-05-06 13:57 | 56.01723 | 37.72073 | 2779 ft | 141 kts | 247° |
| 2026-05-06 13:58 | 56.01407 | 37.70396 | 2639 ft | 141 kts | 259° |
| 2026-05-06 13:58 | 56.01160 | 37.68720 | 2572 ft | 143 kts | 256° |
| 2026-05-06 13:58 | 56.00906 | 37.66997 | 2505 ft | 140 kts | 257° |
| 2026-05-06 13:58 | 56.00662 | 37.65333 | 2519 ft | 143 kts | 259° |
| 2026-05-06 13:59 | 56.00409 | 37.63615 | 2511 ft | 141 kts | 257° |
| 2026-05-06 13:59 | 56.00162 | 37.61930 | 2500 ft | 142 kts | 258° |
| 2026-05-06 13:59 | 55.99910 | 37.60220 | 2393 ft | 139 kts | 258° |
| 2026-05-06 13:59 | 55.99666 | 37.58565 | 2238 ft | 139 kts | 260° |
| 2026-05-06 14:00 | 55.99421 | 37.56900 | 2061 ft | 139 kts | 258° |
| 2026-05-06 14:00 | 55.99176 | 37.55241 | 1875 ft | 137 kts | 258° |
| 2026-05-06 14:00 | 55.98933 | 37.53599 | 1701 ft | 137 kts | 256° |
| 2026-05-06 14:00 | 55.98690 | 37.51956 | 1514 ft | 139 kts | 257° |
| 2026-05-06 14:01 | 55.98444 | 37.50294 | 1350 ft | 139 kts | 257° |
| 2026-05-06 14:01 | 55.98201 | 37.48652 | 1150 ft | 137 kts | 258° |
| 2026-05-06 14:01 | 55.97970 | 37.47059 | 1026 ft | 136 kts | 262° |
| 2026-05-06 14:01 | 55.97727 | 37.45410 | 817 ft | 137 kts | 258° |
| 2026-05-06 14:02 | 55.97487 | 37.43778 | 645 ft | 132 kts | 257° |
| 2026-05-06 14:02 | 55.97285 | 37.42441 | 648 ft | 88 kts | 256° |
| 2026-05-06 14:02 | 55.97182 | 37.41741 | 642 ft | 39 kts | 255° |
| 2026-05-06 14:02 | 55.97134 | 37.41391 | 640 ft | 12 kts | 270° |
| 2026-05-06 14:03 | 55.97200 | 37.41328 | 643 ft | 13 kts | 347° |
| 2026-05-06 14:03 | 55.97242 | 37.41310 | 639 ft | 4 kts | 346° |
| 2026-05-06 14:03 | 55.97243 | 37.41310 | 639 ft | 0 kts | 346° |
| 2026-05-06 14:04 | 55.97260 | 37.41302 | 639 ft | 7 kts | 346° |
| 2026-05-06 14:04 | 55.97298 | 37.41284 | 640 ft | 6 kts | 345° |
| 2026-05-06 14:04 | 55.97382 | 37.41244 | 640 ft | 15 kts | 344° |
| 2026-05-06 14:05 | 55.97492 | 37.41190 | 641 ft | 15 kts | 346° |
| 2026-05-06 14:05 | 55.97546 | 37.41243 | 643 ft | 10 kts | 78° |
| 2026-05-06 14:05 | 55.97560 | 37.41352 | 639 ft | 9 kts | 75° |
| 2026-05-06 14:05 | 55.97576 | 37.41461 | 642 ft | 9 kts | 75° |
| 2026-05-06 14:06 | 55.97592 | 37.41562 | 643 ft | 8 kts | 69° |
| 2026-05-06 14:06 | 55.97630 | 37.41606 | 639 ft | 6 kts | 359° |
| 2026-05-06 14:06 | 55.97667 | 37.41591 | 641 ft | 5 kts | 356° |
| 2026-05-06 14:06 | 55.97692 | 37.41637 | 645 ft | 5 kts | 76° |
| 2026-05-06 14:07 | 55.97705 | 37.41690 | 643 ft | 4 kts | 46° |
| 2026-05-06 14:07 | 55.97735 | 37.41707 | 639 ft | 5 kts | 11° |
| 2026-05-06 14:07 | 55.97766 | 37.41717 | 642 ft | 4 kts | 11° |
| 2026-05-06 14:07 | 55.97793 | 37.41726 | 644 ft | 4 kts | 11° |
| 2026-05-06 14:08 | 55.97805 | 37.41730 | 640 ft | 0 kts | 9° |